Airport View

Enter AWOS ICAO identifier for current METAR.

ex. KFNL

KMSP 221753Z 36012KT 10SM SCT065 24/09 A3023 RMK AO2 SLP234 T02440089 10244 20167 58002

22 Jul 2019 18:48

Phone: 612-713-4174

Other Area AWOS: KSTP - KSGS - KFCM - KMIC

TAF KMSP 221730Z 2218/2324 34012KT P6SM BKN060 FM222100 32011KT P6SM SCT060 FM230100 31006KT P6SM SKC FM231600 30010KT P6SM SCT050